Time;durP1;ratioP1;P1;durP2;ratioP2;P2;SDS_P1;SDS_P2;PMS_P1;PMS_P2;Temp;Humidity;BMP_temperature;BMP_pressure;BME280_temperature;BME280_humidity;BME280_pressure;Samples;Min_cycle;Max_cycle;Signal;HPM_P1;HPM_P2
2022/10/29 03:01:44;;;;;;;;;;;15.80;99.90;;;;;;5641074;23;19933;-72
2022/10/29 03:04:11;;;;;;;;;;;15.80;99.90;;;;;;4995191;28;20387;-71
2022/10/29 03:06:37;;;;;;;;;;;15.80;99.90;;;;;;5009656;28;20044;-71
2022/10/29 03:09:04;;;;;;;;;;;15.80;99.90;;;;;;5001887;28;20069;-71
2022/10/29 03:11:31;;;;;;;;;;;15.70;99.90;;;;;;4989031;28;20030;-71
2022/10/29 03:13:57;;;;;;;;;;;15.70;99.90;;;;;;4986259;28;20329;-69
2022/10/29 03:16:24;;;;;;;;;;;15.60;99.90;;;;;;4993079;28;19972;-71
2022/10/29 03:18:52;;;;;;;;;;;15.60;99.90;;;;;;4983685;28;20454;-69
2022/10/29 03:21:19;;;;;;;;;;;15.60;99.90;;;;;;4984505;28;20347;-70
2022/10/29 03:23:45;;;;;;;;;;;15.50;99.90;;;;;;4982031;28;19932;-71
2022/10/29 03:26:12;;;;;;;;;;;15.40;99.90;;;;;;4990088;28;20025;-71
2022/10/29 03:28:38;;;;;;;;;;;15.40;99.90;;;;;;4986372;28;20016;-71
2022/10/29 03:31:05;;;;;;;;;;;15.40;99.90;;;;;;4977465;28;20016;-71
2022/10/29 03:33:32;;;;;;;;;;;15.40;99.90;;;;;;4975285;28;19926;-71
2022/10/29 03:36:00;;;;;;;;;;;15.30;99.90;;;;;;4983426;28;20134;-71
2022/10/29 03:38:27;;;;;;;;;;;15.40;99.90;;;;;;4989030;28;19925;-71
2022/10/29 03:40:54;;;;;;;;;;;15.40;99.90;;;;;;4994349;28;19926;-71
2022/10/29 03:43:21;;;;;;;;;;;15.50;99.90;;;;;;4988623;28;19930;-71
2022/10/29 03:45:52;;;;;;;;;;;15.40;99.90;;;;;;4984994;28;19926;-72
2022/10/29 03:48:18;;;;;;;;;;;15.40;99.90;;;;;;4988823;28;19926;-72
2022/10/29 03:50:45;;;;;;;;;;;15.40;99.90;;;;;;4983734;28;19926;-71
2022/10/29 03:53:14;;;;;;;;;;;15.40;99.90;;;;;;4984827;28;19926;-71
2022/10/29 03:55:40;;;;;;;;;;;15.40;99.90;;;;;;4994245;28;19957;-70
2022/10/29 03:58:07;;;;;;;;;;;15.40;99.90;;;;;;4981431;28;19926;-71
2022/10/29 04:00:34;;;;;;;;;;;15.50;99.90;;;;;;4986633;28;19926;-71
2022/10/29 04:03:01;;;;;;;;;;;15.60;99.90;;;;;;4986411;28;19929;-72
2022/10/29 04:05:27;;;;;;;;;;;15.60;99.90;;;;;;4984355;28;19926;-71
2022/10/29 04:07:54;;;;;;;;;;;15.60;99.90;;;;;;4978468;28;19926;-70
2022/10/29 04:10:24;;;;;;;;;;;15.60;99.90;;;;;;4990371;28;19937;-71
2022/10/29 04:12:51;;;;;;;;;;;15.70;99.90;;;;;;4990560;28;19973;-72
2022/10/29 04:15:18;;;;;;;;;;;15.80;99.90;;;;;;4982770;28;19969;-71
2022/10/29 04:17:45;;;;;;;;;;;15.80;99.90;;;;;;4990659;28;20020;-70
2022/10/29 04:20:12;;;;;;;;;;;15.80;99.90;;;;;;4979893;28;20006;-70
2022/10/29 04:22:39;;;;;;;;;;;15.70;99.90;;;;;;4978009;28;19930;-71
2022/10/29 04:25:06;;;;;;;;;;;15.80;99.90;;;;;;4981903;28;20301;-71
2022/10/29 04:27:34;;;;;;;;;;;15.80;99.90;;;;;;4982128;28;20359;-71
2022/10/29 04:30:01;;;;;;;;;;;15.70;99.90;;;;;;4989495;28;19930;-71
2022/10/29 04:32:28;;;;;;;;;;;15.80;99.90;;;;;;4989080;28;19944;-71
2022/10/29 04:34:54;;;;;;;;;;;15.90;99.90;;;;;;4976120;28;19938;-71
2022/10/29 04:37:21;;;;;;;;;;;15.90;99.90;;;;;;4982405;28;19934;-71
2022/10/29 04:39:48;;;;;;;;;;;15.90;99.90;;;;;;4981702;28;19953;-71
2022/10/29 04:42:15;;;;;;;;;;;15.80;99.90;;;;;;4993545;28;19925;-71
2022/10/29 04:44:43;;;;;;;;;;;15.70;99.90;;;;;;4980780;28;19929;-71
2022/10/29 04:47:09;;;;;;;;;;;15.70;99.90;;;;;;4986467;28;19930;-72
2022/10/29 04:49:36;;;;;;;;;;;15.70;99.90;;;;;;4976711;28;20288;-71
2022/10/29 04:52:03;;;;;;;;;;;15.70;99.90;;;;;;4987280;28;19926;-71
2022/10/29 04:54:30;;;;;;;;;;;15.70;99.90;;;;;;4991053;28;19925;-71
2022/10/29 04:56:57;;;;;;;;;;;15.70;99.90;;;;;;4988337;28;19973;-69
2022/10/29 04:59:24;;;;;;;;;;;15.70;99.90;;;;;;4981999;28;19926;-69
2022/10/29 05:01:52;;;;;;;;;;;15.70;99.90;;;;;;4976272;28;20399;-71
2022/10/29 05:04:19;;;;;;;;;;;15.70;99.90;;;;;;4986782;28;19962;-71
2022/10/29 05:06:45;;;;;;;;;;;15.80;99.90;;;;;;4989108;28;19945;-71
2022/10/29 05:09:12;;;;;;;;;;;15.80;99.90;;;;;;4990091;28;19938;-69
2022/10/29 05:11:39;;;;;;;;;;;15.70;99.90;;;;;;4986792;28;19951;-71
2022/10/29 05:14:06;;;;;;;;;;;15.70;99.90;;;;;;4992824;28;19929;-71
2022/10/29 05:16:32;;;;;;;;;;;15.70;99.90;;;;;;4992886;28;19930;-71
2022/10/29 05:19:01;;;;;;;;;;;15.60;99.90;;;;;;4977162;28;20339;-71
2022/10/29 05:21:28;;;;;;;;;;;15.60;99.90;;;;;;4982716;28;19933;-71
2022/10/29 05:23:55;;;;;;;;;;;15.50;99.90;;;;;;4981104;28;20026;-71
2022/10/29 05:26:21;;;;;;;;;;;15.50;99.90;;;;;;4987178;28;19973;-71
2022/10/29 05:28:49;;;;;;;;;;;15.50;99.90;;;;;;4990188;28;19933;-71
2022/10/29 05:31:16;;;;;;;;;;;15.50;99.90;;;;;;4973105;28;19926;-71
2022/10/29 05:33:42;;;;;;;;;;;15.60;99.90;;;;;;4982078;28;19989;-71
2022/10/29 05:36:11;;;;;;;;;;;15.60;99.90;;;;;;4980246;28;19933;-71
2022/10/29 05:38:38;;;;;;;;;;;15.60;99.90;;;;;;4973300;28;19930;-71
2022/10/29 05:41:04;;;;;;;;;;;15.60;99.90;;;;;;4980137;28;19926;-71
2022/10/29 05:43:31;;;;;;;;;;;15.70;99.90;;;;;;4984769;28;20356;-71
2022/10/29 05:45:58;;;;;;;;;;;15.70;99.90;;;;;;4989199;28;19933;-71
2022/10/29 05:48:25;;;;;;;;;;;15.70;99.90;;;;;;4972771;28;19939;-71
2022/10/29 05:50:51;;;;;;;;;;;15.80;99.90;;;;;;4984787;28;20384;-69
2022/10/29 05:53:20;;;;;;;;;;;15.80;99.90;;;;;;4980541;28;19926;-70
2022/10/29 05:55:46;;;;;;;;;;;15.80;99.90;;;;;;4990644;28;19926;-71
2022/10/29 05:58:14;;;;;;;;;;;15.90;99.90;;;;;;4985748;28;19929;-71
2022/10/29 06:00:42;;;;;;;;;;;15.90;99.90;;;;;;4976945;28;19930;-71
2022/10/29 06:03:10;;;;;;;;;;;15.90;99.90;;;;;;4981630;28;19926;-71
2022/10/29 06:05:37;;;;;;;;;;;15.90;99.90;;;;;;4976602;28;19926;-71
2022/10/29 06:08:04;;;;;;;;;;;15.80;99.90;;;;;;4985811;28;19930;-71
2022/10/29 06:10:33;;;;;;;;;;;15.80;99.90;;;;;;4979981;28;19926;-72
2022/10/29 06:13:00;;;;;;;;;;;15.90;99.90;;;;;;4980040;28;19926;-71
2022/10/29 06:15:26;;;;;;;;;;;16.00;99.90;;;;;;4980546;28;19926;-72
2022/10/29 06:17:53;;;;;;;;;;;16.00;99.90;;;;;;4980207;28;19926;-71
2022/10/29 06:20:21;;;;;;;;;;;15.90;99.90;;;;;;4981257;28;19932;-72
2022/10/29 06:22:48;;;;;;;;;;;15.80;99.90;;;;;;4974579;28;19927;-71
2022/10/29 06:25:14;;;;;;;;;;;15.80;99.90;;;;;;4979248;28;19926;-71
2022/10/29 06:27:43;;;;;;;;;;;15.70;99.90;;;;;;4979140;28;19984;-71
2022/10/29 06:30:10;;;;;;;;;;;15.70;99.90;;;;;;4986744;28;20373;-71
2022/10/29 06:32:37;;;;;;;;;;;15.70;99.90;;;;;;4984988;28;19926;-71
2022/10/29 06:35:04;;;;;;;;;;;15.60;99.90;;;;;;4987453;28;19930;-72
2022/10/29 06:37:32;;;;;;;;;;;15.60;99.90;;;;;;4983497;28;19926;-71
2022/10/29 06:39:59;;;;;;;;;;;15.60;99.90;;;;;;4982653;28;19930;-71
2022/10/29 06:42:25;;;;;;;;;;;15.60;99.90;;;;;;4978705;28;19926;-71
2022/10/29 06:44:54;;;;;;;;;;;15.60;99.90;;;;;;4975807;28;20329;-71
2022/10/29 06:47:20;;;;;;;;;;;15.70;99.90;;;;;;4980539;28;19940;-71
2022/10/29 06:49:47;;;;;;;;;;;15.80;99.90;;;;;;4981396;28;19925;-71
2022/10/29 06:52:14;;;;;;;;;;;15.80;99.90;;;;;;4986189;28;19930;-71
2022/10/29 06:54:41;;;;;;;;;;;15.80;99.90;;;;;;4981627;28;19933;-71
2022/10/29 06:57:08;;;;;;;;;;;15.80;99.90;;;;;;4991450;28;19985;-71
2022/10/29 06:59:34;;;;;;;;;;;15.80;99.90;;;;;;4982967;28;20289;-71
2022/10/29 07:02:03;;;;;;;;;;;15.80;99.90;;;;;;4987713;28;19949;-71
2022/10/29 07:04:29;;;;;;;;;;;15.80;99.90;;;;;;4994913;28;19961;-72
2022/10/29 07:06:56;;;;;;;;;;;15.80;99.90;;;;;;4979273;28;19926;-72
2022/10/29 07:09:23;;;;;;;;;;;15.90;99.90;;;;;;4977233;28;19980;-72
2022/10/29 07:11:49;;;;;;;;;;;15.90;99.90;;;;;;4981519;28;19926;-75
2022/10/29 07:14:16;;;;;;;;;;;15.90;99.90;;;;;;4982822;28;19933;-71
2022/10/29 07:16:43;;;;;;;;;;;16.00;99.90;;;;;;4979970;28;20381;-71
2022/10/29 07:19:11;;;;;;;;;;;16.00;99.90;;;;;;4986097;28;19930;-71
2022/10/29 07:21:43;;;;;;;;;;;15.90;99.90;;;;;;4984541;28;19926;-72
2022/10/29 07:24:10;;;;;;;;;;;16.00;99.90;;;;;;4987836;28;19976;-72
2022/10/29 07:26:37;;;;;;;;;;;16.10;99.90;;;;;;4981960;28;19930;-68
2022/10/29 07:29:04;;;;;;;;;;;16.20;99.90;;;;;;4981006;28;19971;-72
2022/10/29 07:31:31;;;;;;;;;;;16.30;99.90;;;;;;4976163;28;19985;-71
2022/10/29 07:33:58;;;;;;;;;;;16.40;99.90;;;;;;4989988;28;19926;-71
2022/10/29 07:36:26;;;;;;;;;;;16.40;99.90;;;;;;4976369;28;19930;-71
2022/10/29 07:38:53;;;;;;;;;;;16.50;99.90;;;;;;4979588;28;19989;-70
2022/10/29 07:41:19;;;;;;;;;;;16.60;99.90;;;;;;4978542;28;20308;-71
2022/10/29 07:43:46;;;;;;;;;;;16.70;99.90;;;;;;4978975;28;20400;-71
2022/10/29 07:46:13;;;;;;;;;;;16.70;99.90;;;;;;4985663;28;19926;-72
2022/10/29 07:48:40;;;;;;;;;;;16.80;99.90;;;;;;4977379;28;19977;-71
2022/10/29 07:51:07;;;;;;;;;;;16.90;99.90;;;;;;4986673;28;20400;-72
2022/10/29 07:53:35;;;;;;;;;;;17.00;99.90;;;;;;4981787;28;19930;-72
2022/10/29 07:56:02;;;;;;;;;;;17.10;99.90;;;;;;4982435;28;19938;-72
2022/10/29 07:58:28;;;;;;;;;;;17.10;99.90;;;;;;4979073;28;19933;-72
2022/10/29 08:00:55;;;;;;;;;;;17.10;99.90;;;;;;4980021;28;19976;-70
2022/10/29 08:03:22;;;;;;;;;;;17.20;99.90;;;;;;4976657;28;20278;-70
2022/10/29 08:05:49;;;;;;;;;;;17.20;99.90;;;;;;4979823;28;19926;-70
2022/10/29 08:08:17;;;;;;;;;;;17.30;99.90;;;;;;4984907;28;19930;-70
2022/10/29 08:10:45;;;;;;;;;;;17.30;99.90;;;;;;4977950;28;19965;-70
2022/10/29 08:13:12;;;;;;;;;;;17.30;99.90;;;;;;4984833;28;20041;-70
2022/10/29 08:15:39;;;;;;;;;;;17.40;99.90;;;;;;4977938;28;19926;-70
2022/10/29 08:18:10;;;;;;;;;;;17.40;99.90;;;;;;4979302;28;20337;-69
2022/10/29 08:20:37;;;;;;;;;;;17.50;99.90;;;;;;5000395;28;19929;-70
2022/10/29 08:23:04;;;;;;;;;;;17.60;99.90;;;;;;4983557;28;20014;-71
2022/10/29 08:25:31;;;;;;;;;;;17.60;99.90;;;;;;4983784;28;19926;-71
2022/10/29 08:28:00;;;;;;;;;;;17.70;99.90;;;;;;4990085;28;19926;-70
2022/10/29 08:30:27;;;;;;;;;;;17.80;99.90;;;;;;4986239;28;20352;-70
2022/10/29 08:32:54;;;;;;;;;;;17.90;99.90;;;;;;4984178;28;19926;-70
2022/10/29 08:35:21;;;;;;;;;;;18.10;99.90;;;;;;4983206;28;19934;-70
2022/10/29 08:37:48;;;;;;;;;;;18.30;99.90;;;;;;4985304;28;19985;-70
2022/10/29 08:40:19;;;;;;;;;;;18.40;99.90;;;;;;4992404;28;19926;-71
2022/10/29 08:42:49;;;;;;;;;;;18.60;99.90;;;;;;4992988;28;19933;-71
2022/10/29 08:45:22;;;;;;;;;;;18.80;99.90;;;;;;4991280;28;20475;-71
2022/10/29 08:47:56;;;;;;;;;;;19.00;99.90;;;;;;4983221;28;19985;-72
2022/10/29 08:50:25;;;;;;;;;;;19.10;99.90;;;;;;4992241;28;19926;-70
2022/10/29 08:52:52;;;;;;;;;;;19.30;99.90;;;;;;4977255;28;19949;-71
2022/10/29 08:55:20;;;;;;;;;;;19.50;99.90;;;;;;4978446;28;19977;-71
2022/10/29 08:57:49;;;;;;;;;;;19.50;99.90;;;;;;4979447;28;19933;-70
2022/10/29 09:00:17;;;;;;;;;;;19.50;99.90;;;;;;4974253;28;19934;-71
2022/10/29 09:02:45;;;;;;;;;;;19.50;99.90;;;;;;4990942;23;19935;-71
2022/10/29 09:05:13;;;;;;;;;;;19.60;99.90;;;;;;4963506;28;19957;-70
2022/10/29 09:07:46;;;;;;;;;;;19.60;99.90;;;;;;4965969;28;20304;-70
2022/10/29 09:10:19;;;;;;;;;;;19.80;99.90;;;;;;4969892;28;19933;-69
2022/10/29 09:13:01;;;;;;;;;;;19.90;99.90;;;;;;4954188;29;19926;-72
2022/10/29 09:15:37;;;;;;;;;;;20.10;99.90;;;;;;4951581;29;20401;-70
2022/10/29 09:18:14;;;;;;;;;;;20.20;99.90;;;;;;4946241;29;19927;-69
2022/10/29 09:20:46;;;;;;;;;;;20.30;99.90;;;;;;4958028;28;19927;-70
2022/10/29 09:23:17;;;;;;;;;;;20.40;99.90;;;;;;4963252;28;19931;-70
2022/10/29 09:25:46;;;;;;;;;;;20.40;99.90;;;;;;4938559;29;19945;-70
2022/10/29 09:28:21;;;;;;;;;;;20.50;99.90;;;;;;4953897;28;19933;-71
2022/10/29 09:30:52;;;;;;;;;;;20.60;99.90;;;;;;4949787;28;19927;-72
2022/10/29 09:33:21;;;;;;;;;;;20.80;99.90;;;;;;4954041;28;19930;-71
2022/10/29 09:35:52;;;;;;;;;;;20.90;99.90;;;;;;4948511;28;19934;-71
2022/10/29 09:38:21;;;;;;;;;;;21.00;99.90;;;;;;4953334;28;19938;-71
2022/10/29 09:40:48;;;;;;;;;;;21.10;99.90;;;;;;4941644;28;19927;-71
2022/10/29 09:43:22;;;;;;;;;;;21.20;99.90;;;;;;4963332;28;19965;-72
2022/10/29 09:45:53;;;;;;;;;;;21.20;99.90;;;;;;4955359;28;19930;-71
2022/10/29 09:48:23;;;;;;;;;;;21.10;99.90;;;;;;4958518;28;19927;-71
2022/10/29 09:50:54;;;;;;;;;;;21.00;99.90;;;;;;4943256;29;19927;-74
2022/10/29 09:53:21;;;;;;;;;;;21.00;99.90;;;;;;4952314;28;19926;-73
2022/10/29 09:55:52;;;;;;;;;;;21.00;99.90;;;;;;4953126;28;19926;-69
2022/10/29 09:58:20;;;;;;;;;;;20.90;99.90;;;;;;4962094;28;19930;-70
2022/10/29 10:00:47;;;;;;;;;;;20.90;99.90;;;;;;4969099;28;20286;-70
2022/10/29 10:03:16;;;;;;;;;;;20.80;99.90;;;;;;4953339;28;19997;-71
2022/10/29 10:05:58;;;;;;;;;;;20.80;99.90;;;;;;4968569;28;19927;-70
2022/10/29 10:08:25;;;;;;;;;;;20.70;99.90;;;;;;4950451;28;19935;-70
2022/10/29 10:10:52;;;;;;;;;;;20.70;99.90;;;;;;4967829;28;19926;-69
2022/10/29 10:13:19;;;;;;;;;;;20.60;99.90;;;;;;4957728;28;19927;-70
2022/10/29 10:15:51;;;;;;;;;;;20.50;99.90;;;;;;4966584;28;20393;-70
2022/10/29 10:18:18;;;;;;;;;;;20.40;99.90;;;;;;4952157;28;20021;-71
2022/10/29 10:20:46;;;;;;;;;;;20.50;99.90;;;;;;4968794;28;20266;-70
2022/10/29 10:23:24;;;;;;;;;;;20.50;99.90;;;;;;4947140;28;19926;-72
2022/10/29 10:25:51;;;;;;;;;;;20.60;99.90;;;;;;4951828;29;19926;-72
2022/10/29 10:28:19;;;;;;;;;;;20.70;99.90;;;;;;4945383;28;20026;-72
2022/10/29 10:31:05;;;;;;;;;;;20.80;99.90;;;;;;4967072;28;20274;-73
2022/10/29 10:33:32;;;;;;;;;;;21.00;99.90;;;;;;4946083;28;19934;-72
2022/10/29 10:36:01;;;;;;;;;;;21.00;99.90;;;;;;4968629;28;19973;-72
2022/10/29 10:38:37;;;;;;;;;;;21.00;99.90;;;;;;4951816;28;20393;-71
2022/10/29 10:41:06;;;;;;;;;;;21.10;99.90;;;;;;4957703;28;20185;-73
2022/10/29 10:43:33;;;;;;;;;;;21.30;99.90;;;;;;4940331;28;20382;-72
2022/10/29 10:46:03;;;;;;;;;;;21.60;99.90;;;;;;4966152;28;19930;-71
2022/10/29 10:48:30;;;;;;;;;;;21.90;99.90;;;;;;4968756;28;19926;-73
2022/10/29 10:51:09;;;;;;;;;;;22.40;99.90;;;;;;4947832;29;19927;-72
2022/10/29 10:53:39;;;;;;;;;;;23.30;99.90;;;;;;4968407;28;19956;-72
2022/10/29 10:56:06;;;;;;;;;;;26.00;99.90;;;;;;4946921;29;20308;-73
2022/10/29 10:58:35;;;;;;;;;;;28.80;99.90;;;;;;4961331;28;20342;-70
2022/10/29 11:01:03;;;;;;;;;;;30.90;99.90;;;;;;4961240;28;19935;-71
2022/10/29 11:03:32;;;;;;;;;;;32.80;99.90;;;;;;4964597;28;19926;-74
2022/10/29 11:06:02;;;;;;;;;;;34.00;99.90;;;;;;4950124;28;19934;-77
2022/10/29 11:08:30;;;;;;;;;;;34.60;99.90;;;;;;4956649;28;20361;-78
2022/10/29 11:11:00;;;;;;;;;;;34.40;99.90;;;;;;4968013;28;19985;-72
2022/10/29 11:13:28;;;;;;;;;;;35.20;99.90;;;;;;4961123;28;19934;-67
2022/10/29 11:15:57;;;;;;;;;;;35.20;99.90;;;;;;4952711;29;19936;-73
2022/10/29 11:18:25;;;;;;;;;;;35.00;99.90;;;;;;4963010;28;19934;-73
2022/10/29 11:20:59;;;;;;;;;;;33.40;99.90;;;;;;4952321;28;19933;-71
2022/10/29 11:23:35;;;;;;;;;;;32.90;99.90;;;;;;4951807;28;20014;-71
2022/10/29 11:26:07;;;;;;;;;;;33.00;99.90;;;;;;4949225;29;20389;-72
2022/10/29 11:28:43;;;;;;;;;;;33.40;99.90;;;;;;4953283;28;19933;-68
2022/10/29 11:31:13;;;;;;;;;;;34.70;99.90;;;;;;4965815;28;19926;-71
2022/10/29 11:33:46;;;;;;;;;;;36.40;99.90;;;;;;4952022;28;19926;-70
2022/10/29 11:36:19;;;;;;;;;;;35.90;99.90;;;;;;4956062;29;19931;-73
2022/10/29 11:38:48;;;;;;;;;;;33.90;99.90;;;;;;4970393;28;20033;-71
2022/10/29 11:41:21;;;;;;;;;;;33.20;99.90;;;;;;4971451;28;20495;-73
2022/10/29 11:43:48;;;;;;;;;;;32.30;99.90;;;;;;4970210;28;19927;-75
2022/10/29 11:46:18;;;;;;;;;;;31.70;99.90;;;;;;4956193;29;20385;-71
2022/10/29 11:48:52;;;;;;;;;;;31.10;99.90;;;;;;4972309;28;19931;-73
2022/10/29 11:51:23;;;;;;;;;;;30.80;99.90;;;;;;4954781;28;20013;-68
2022/10/29 11:53:56;;;;;;;;;;;31.20;99.90;;;;;;4962607;28;19927;-74
2022/10/29 11:56:29;;;;;;;;;;;31.30;99.90;;;;;;4952569;29;20329;-74
2022/10/29 11:58:59;;;;;;;;;;;31.60;99.90;;;;;;4955406;28;19934;-74
2022/10/29 12:01:31;;;;;;;;;;;32.50;99.90;;;;;;4965141;28;19931;-74
2022/10/29 12:04:08;;;;;;;;;;;33.90;99.90;;;;;;4955700;29;19927;-74
2022/10/29 12:06:39;;;;;;;;;;;35.10;99.90;;;;;;4951625;29;19934;-74
2022/10/29 12:09:15;;;;;;;;;;;36.50;99.90;;;;;;4963214;28;19926;-72
2022/10/29 12:11:45;;;;;;;;;;;36.50;99.90;;;;;;4951152;28;19927;-74
2022/10/29 12:14:20;;;;;;;;;;;37.10;99.90;;;;;;4971037;28;19933;-73
2022/10/29 12:16:51;;;;;;;;;;;37.40;99.90;;;;;;4954727;28;19927;-73
2022/10/29 12:19:24;;;;;;;;;;;38.60;99.90;;;;;;4962783;28;19926;-74
2022/10/29 12:21:54;;;;;;;;;;;37.20;99.90;;;;;;4962100;28;20352;-73
2022/10/29 12:24:25;;;;;;;;;;;35.70;99.90;;;;;;4948639;28;19949;-74
2022/10/29 12:26:57;;;;;;;;;;;34.30;99.90;;;;;;4969892;28;19950;-74
2022/10/29 12:29:27;;;;;;;;;;;33.70;99.90;;;;;;4949980;29;19934;-73
2022/10/29 12:31:57;;;;;;;;;;;32.70;99.90;;;;;;4945941;28;19931;-72
2022/10/29 12:34:25;;;;;;;;;;;31.90;99.90;;;;;;4970439;28;19926;-74
2022/10/29 12:36:56;;;;;;;;;;;31.60;99.90;;;;;;4954242;29;19933;-74
2022/10/29 12:39:26;;;;;;;;;;;31.50;99.90;;;;;;4952450;28;19978;-73
2022/10/29 12:41:57;;;;;;;;;;;31.00;99.90;;;;;;4970775;28;19933;-73
2022/10/29 12:44:25;;;;;;;;;;;30.50;99.90;;;;;;4967711;28;19981;-72
2022/10/29 12:46:57;;;;;;;;;;;29.80;99.90;;;;;;4970313;28;19927;-73
2022/10/29 12:49:30;;;;;;;;;;;29.30;99.90;;;;;;4964920;28;19931;-73
2022/10/29 12:51:58;;;;;;;;;;;28.70;99.90;;;;;;4969685;28;20305;-73
2022/10/29 12:54:31;;;;;;;;;;;28.20;99.90;;;;;;4970317;28;19930;-73
2022/10/29 12:57:05;;;;;;;;;;;27.50;99.90;;;;;;4968579;28;20349;-72
2022/10/29 12:59:33;;;;;;;;;;;27.20;99.90;;;;;;4962338;28;20381;-73
2022/10/29 13:02:19;;;;;;;;;;;27.10;99.90;;;;;;4944893;28;19927;-72
2022/10/29 13:05:05;;;;;;;;;;;26.90;99.90;;;;;;4962109;28;19931;-72
2022/10/29 13:07:32;;;;;;;;;;;26.70;99.90;;;;;;4967243;28;19927;-72
2022/10/29 13:10:17;;;;;;;;;;;26.50;99.90;;;;;;4958096;28;19973;-72
2022/10/29 13:12:56;;;;;;;;;;;26.50;99.90;;;;;;4963238;28;20042;-73
2022/10/29 13:15:24;;;;;;;;;;;26.80;99.90;;;;;;4965318;28;20452;-73
2022/10/29 13:17:52;;;;;;;;;;;27.10;99.90;;;;;;4963469;28;19926;-71
2022/10/29 13:20:21;;;;;;;;;;;27.40;99.90;;;;;;4969605;28;19927;-72
2022/10/29 13:22:51;;;;;;;;;;;27.20;99.90;;;;;;4948216;28;19938;-72
2022/10/29 13:25:29;;;;;;;;;;;27.00;99.90;;;;;;4966079;28;20022;-73
2022/10/29 13:27:57;;;;;;;;;;;26.90;99.90;;;;;;4948191;29;19930;-74
2022/10/29 13:30:25;;;;;;;;;;;26.60;99.90;;;;;;4946645;29;19954;-73
2022/10/29 13:32:52;;;;;;;;;;;26.30;99.90;;;;;;4949350;28;19965;-73
2022/10/29 13:35:38;;;;;;;;;;;25.80;99.90;;;;;;4952774;28;19930;-71
2022/10/29 13:38:15;;;;;;;;;;;25.60;99.90;;;;;;4939812;29;19934;-70
2022/10/29 13:41:00;;;;;;;;;;;25.50;99.90;;;;;;4967349;28;20413;-70
2022/10/29 13:43:29;;;;;;;;;;;25.50;99.90;;;;;;4969781;28;19926;-72
2022/10/29 13:46:22;;;;;;;;;;;25.40;99.90;;;;;;4958602;28;20406;-73
2022/10/29 13:48:50;;;;;;;;;;;25.20;99.90;;;;;;4969645;28;19954;-72
2022/10/29 13:51:20;;;;;;;;;;;24.90;99.90;;;;;;4969698;28;19934;-73
2022/10/29 13:53:49;;;;;;;;;;;24.80;99.90;;;;;;4968456;28;19934;-72
2022/10/29 13:56:19;;;;;;;;;;;24.70;99.90;;;;;;4969788;28;20003;-72
2022/10/29 13:58:48;;;;;;;;;;;24.70;99.90;;;;;;4966826;28;19989;-72
2022/10/29 14:01:17;;;;;;;;;;;24.60;99.90;;;;;;4958696;28;19927;-73
2022/10/29 14:03:51;;;;;;;;;;;24.40;99.90;;;;;;4969123;28;19926;-72
2022/10/29 14:06:20;;;;;;;;;;;24.30;99.90;;;;;;4952841;28;19927;-72
2022/10/29 14:08:50;;;;;;;;;;;24.10;99.90;;;;;;4969007;28;20341;-72
2022/10/29 14:11:22;;;;;;;;;;;24.10;99.90;;;;;;4948907;28;19926;-73
2022/10/29 14:13:51;;;;;;;;;;;24.00;99.90;;;;;;4953004;28;19958;-73
2022/10/29 14:16:19;;;;;;;;;;;23.90;99.90;;;;;;4951733;28;19934;-73
2022/10/29 14:18:46;;;;;;;;;;;23.90;99.90;;;;;;4969171;28;19930;-73
2022/10/29 14:21:14;;;;;;;;;;;23.90;99.90;;;;;;4952290;28;19927;-73
2022/10/29 14:23:41;;;;;;;;;;;23.70;99.90;;;;;;4968412;28;19926;-74
2022/10/29 14:26:15;;;;;;;;;;;23.70;99.90;;;;;;4952092;28;19926;-72
2022/10/29 14:28:42;;;;;;;;;;;23.60;99.90;;;;;;4968557;28;19927;-73
2022/10/29 14:31:13;;;;;;;;;;;23.60;99.90;;;;;;4950900;28;19927;-72
2022/10/29 14:33:41;;;;;;;;;;;23.60;99.90;;;;;;4960693;28;19930;-73
2022/10/29 14:36:12;;;;;;;;;;;23.60;99.90;;;;;;4949694;28;19950;-73
2022/10/29 14:38:41;;;;;;;;;;;23.60;99.90;;;;;;4962087;28;20365;-73
2022/10/29 14:41:09;;;;;;;;;;;23.70;99.90;;;;;;4967964;28;19926;-73
2022/10/29 14:43:36;;;;;;;;;;;23.70;99.90;;;;;;4944238;28;19984;-72
2022/10/29 14:46:10;;;;;;;;;;;23.80;99.90;;;;;;4957321;28;19927;-73
2022/10/29 14:48:39;;;;;;;;;;;23.80;99.90;;;;;;4944739;29;19934;-73
2022/10/29 14:51:06;;;;;;;;;;;23.80;99.90;;;;;;4943917;28;19954;-73
2022/10/29 14:53:34;;;;;;;;;;;23.70;99.90;;;;;;4957256;28;19970;-72
2022/10/29 14:56:03;;;;;;;;;;;23.60;99.90;;;;;;4946362;29;19978;-74
2022/10/29 14:58:31;;;;;;;;;;;23.70;99.90;;;;;;4951432;28;20021;-72
2022/10/29 15:00:58;;;;;;;;;;;23.80;99.90;;;;;;4948277;29;20064;-72
2022/10/29 15:03:26;;;;;;;;;;;24.00;99.90;;;;;;4957177;28;20014;-71
2022/10/29 15:06:09;;;;;;;;;;;23.90;99.90;;;;;;4964159;28;19973;-69
2022/10/29 15:08:38;;;;;;;;;;;23.80;99.90;;;;;;4946196;29;19966;-72
2022/10/29 15:11:05;;;;;;;;;;;23.70;99.90;;;;;;4947526;28;20283;-72
2022/10/29 15:13:34;;;;;;;;;;;23.40;99.90;;;;;;4963995;28;20009;-73
2022/10/29 15:16:02;;;;;;;;;;;23.30;99.90;;;;;;4945688;29;19927;-72
2022/10/29 15:18:29;;;;;;;;;;;23.10;99.90;;;;;;4962598;28;20333;-72
2022/10/29 15:20:57;;;;;;;;;;;23.00;99.90;;;;;;4940590;28;19926;-72
2022/10/29 15:23:26;;;;;;;;;;;22.80;99.90;;;;;;4960713;28;19926;-71
2022/10/29 15:25:57;;;;;;;;;;;22.60;99.90;;;;;;4952982;28;19931;-72
2022/10/29 15:31:19;;;;;;;;;;;22.40;99.90;;;;;;4960991;28;20058;-71
2022/10/29 15:33:46;;;;;;;;;;;22.30;99.90;;;;;;4960834;28;19927;-71
2022/10/29 15:36:14;;;;;;;;;;;22.10;99.90;;;;;;4978339;28;19926;-72
2022/10/29 15:38:59;;;;;;;;;;;22.00;99.90;;;;;;4964083;28;20445;-72
2022/10/29 15:41:35;;;;;;;;;;;21.90;99.90;;;;;;4953347;28;19927;-71
2022/10/29 15:44:02;;;;;;;;;;;21.80;99.90;;;;;;4938910;29;19933;-71
2022/10/29 15:46:30;;;;;;;;;;;21.70;99.90;;;;;;4959716;28;19931;-71
2022/10/29 15:48:56;;;;;;;;;;;21.60;99.90;;;;;;4954848;28;19927;-72
2022/10/29 15:51:26;;;;;;;;;;;21.50;99.90;;;;;;4960961;28;19971;-71
2022/10/29 15:53:53;;;;;;;;;;;21.40;99.90;;;;;;4953726;28;19927;-71
2022/10/29 15:56:20;;;;;;;;;;;21.30;99.90;;;;;;4957756;28;19926;-71
2022/10/29 15:58:47;;;;;;;;;;;21.20;99.90;;;;;;4948233;29;19974;-71
2022/10/29 16:01:15;;;;;;;;;;;21.10;99.90;;;;;;4964108;28;19927;-71
2022/10/29 16:03:42;;;;;;;;;;;21.00;99.90;;;;;;4959685;28;19953;-71
2022/10/29 16:06:09;;;;;;;;;;;20.90;99.90;;;;;;4957188;28;19930;-70
2022/10/29 16:08:39;;;;;;;;;;;20.80;99.90;;;;;;4964269;28;19931;-71
2022/10/29 16:11:08;;;;;;;;;;;20.70;99.90;;;;;;4950401;28;19927;-70
2022/10/29 16:13:35;;;;;;;;;;;20.60;99.90;;;;;;4957935;28;19934;-72
2022/10/29 16:16:02;;;;;;;;;;;20.50;99.90;;;;;;4936187;29;19927;-71
2022/10/29 16:18:28;;;;;;;;;;;20.40;99.90;;;;;;4965591;28;19942;-71
2022/10/29 16:20:57;;;;;;;;;;;20.30;99.90;;;;;;4940964;29;19942;-72
2022/10/29 16:23:24;;;;;;;;;;;20.30;99.90;;;;;;4957560;28;19983;-71
2022/10/29 16:25:52;;;;;;;;;;;20.20;99.90;;;;;;4943203;29;20453;-70
2022/10/29 16:28:19;;;;;;;;;;;20.10;99.90;;;;;;4936596;29;19938;-72
2022/10/29 16:30:47;;;;;;;;;;;20.10;99.90;;;;;;4958631;28;19926;-72
2022/10/29 16:33:15;;;;;;;;;;;20.00;99.90;;;;;;4952951;28;19952;-72
2022/10/29 16:35:42;;;;;;;;;;;19.90;99.90;;;;;;4953407;28;19927;-72
2022/10/29 16:38:09;;;;;;;;;;;19.80;99.90;;;;;;4938369;29;19981;-72
2022/10/29 16:40:35;;;;;;;;;;;19.70;99.90;;;;;;4942642;29;19934;-72
2022/10/29 16:43:04;;;;;;;;;;;19.70;99.90;;;;;;4936691;29;19931;-72
2022/10/29 16:45:31;;;;;;;;;;;19.60;99.90;;;;;;4934115;29;19926;-71
2022/10/29 16:47:58;;;;;;;;;;;19.50;99.90;;;;;;4944272;28;19934;-71
2022/10/29 16:50:27;;;;;;;;;;;19.50;99.90;;;;;;4946436;28;19931;-72
2022/10/29 16:52:57;;;;;;;;;;;19.40;99.90;;;;;;4951154;29;19934;-69
2022/10/29 16:55:24;;;;;;;;;;;19.30;99.90;;;;;;4963371;28;20337;-71
2022/10/29 16:57:51;;;;;;;;;;;19.30;99.90;;;;;;4954568;28;19974;-72
2022/10/29 17:00:19;;;;;;;;;;;19.30;99.90;;;;;;4954713;28;19997;-71
2022/10/29 17:02:46;;;;;;;;;;;19.20;99.90;;;;;;4949724;28;19931;-72
2022/10/29 17:05:13;;;;;;;;;;;19.20;99.90;;;;;;4960228;28;19930;-72
2022/10/29 17:07:40;;;;;;;;;;;19.20;99.90;;;;;;4955602;28;19931;-71
2022/10/29 17:10:07;;;;;;;;;;;19.20;99.90;;;;;;4935835;29;19982;-71
2022/10/29 17:12:34;;;;;;;;;;;19.20;99.90;;;;;;4961441;28;19933;-72
2022/10/29 17:15:01;;;;;;;;;;;19.10;99.90;;;;;;4940826;29;19926;-71
2022/10/29 17:17:31;;;;;;;;;;;19.00;99.90;;;;;;4942960;29;20025;-71
2022/10/29 17:19:58;;;;;;;;;;;19.00;99.90;;;;;;4950641;28;19926;-71
2022/10/29 17:22:25;;;;;;;;;;;18.90;99.90;;;;;;4933544;29;19987;-72
2022/10/29 17:24:51;;;;;;;;;;;18.90;99.90;;;;;;4956637;28;19933;-71
2022/10/29 17:27:18;;;;;;;;;;;18.90;99.90;;;;;;4947166;29;20024;-69
2022/10/29 17:29:45;;;;;;;;;;;18.90;99.90;;;;;;4936331;29;19956;-71